sensor_id;sensor_type;location;lat;lon;timestamp;temperature;humidity
1179;DHT22;578;48.408;10.004;2022-11-02T00:00:44;6.50;99.90
1179;DHT22;578;48.408;10.004;2022-11-02T00:03:11;6.50;99.90
1179;DHT22;578;48.408;10.004;2022-11-02T00:05:39;6.60;99.90
1179;DHT22;578;48.408;10.004;2022-11-02T00:08:06;6.50;99.90
1179;DHT22;578;48.408;10.004;2022-11-02T00:10:32;6.40;99.90
1179;DHT22;578;48.408;10.004;2022-11-02T00:12:59;6.50;99.90
1179;DHT22;578;48.408;10.004;2022-11-02T00:15:28;6.70;99.90
1179;DHT22;578;48.408;10.004;2022-11-02T00:17:58;6.80;99.90
1179;DHT22;578;48.408;10.004;2022-11-02T00:20:26;6.80;99.90
1179;DHT22;578;48.408;10.004;2022-11-02T00:22:58;6.70;99.90
1179;DHT22;578;48.408;10.004;2022-11-02T00:25:27;6.80;99.90
1179;DHT22;578;48.408;10.004;2022-11-02T00:27:55;6.70;99.90
1179;DHT22;578;48.408;10.004;2022-11-02T00:30:21;6.80;99.90
1179;DHT22;578;48.408;10.004;2022-11-02T00:32:49;6.70;99.90
1179;DHT22;578;48.408;10.004;2022-11-02T00:35:16;6.80;99.90
1179;DHT22;578;48.408;10.004;2022-11-02T00:37:43;6.80;99.90
1179;DHT22;578;48.408;10.004;2022-11-02T00:40:11;6.90;99.90
1179;DHT22;578;48.408;10.004;2022-11-02T00:42:38;6.80;99.90
1179;DHT22;578;48.408;10.004;2022-11-02T00:45:06;6.80;99.90
1179;DHT22;578;48.408;10.004;2022-11-02T00:47:33;6.70;99.90
1179;DHT22;578;48.408;10.004;2022-11-02T00:50:00;6.50;99.90
1179;DHT22;578;48.408;10.004;2022-11-02T00:52:26;6.50;99.90
1179;DHT22;578;48.408;10.004;2022-11-02T00:54:53;6.50;99.90
1179;DHT22;578;48.408;10.004;2022-11-02T00:57:21;6.50;99.90
1179;DHT22;578;48.408;10.004;2022-11-02T00:59:48;6.40;99.90
1179;DHT22;578;48.408;10.004;2022-11-02T01:02:15;6.60;99.90
1179;DHT22;578;48.408;10.004;2022-11-02T01:04:41;6.60;99.90
1179;DHT22;578;48.408;10.004;2022-11-02T01:07:08;6.50;99.90
1179;DHT22;578;48.408;10.004;2022-11-02T01:09:35;6.50;99.90
1179;DHT22;578;48.408;10.004;2022-11-02T01:12:02;6.40;99.90
1179;DHT22;578;48.408;10.004;2022-11-02T01:14:30;6.50;99.90
1179;DHT22;578;48.408;10.004;2022-11-02T01:16:57;6.50;99.90
1179;DHT22;578;48.408;10.004;2022-11-02T01:19:24;6.30;99.90
1179;DHT22;578;48.408;10.004;2022-11-02T01:21:51;6.30;99.90
1179;DHT22;578;48.408;10.004;2022-11-02T01:24:17;6.30;99.90
1179;DHT22;578;48.408;10.004;2022-11-02T01:26:44;6.30;99.90
1179;DHT22;578;48.408;10.004;2022-11-02T01:29:14;6.40;99.90
1179;DHT22;578;48.408;10.004;2022-11-02T01:31:42;6.30;99.90
1179;DHT22;578;48.408;10.004;2022-11-02T01:34:10;6.20;99.90
1179;DHT22;578;48.408;10.004;2022-11-02T01:36:37;6.20;99.90
1179;DHT22;578;48.408;10.004;2022-11-02T01:39:03;6.10;99.90
1179;DHT22;578;48.408;10.004;2022-11-02T01:41:30;6.00;99.90
1179;DHT22;578;48.408;10.004;2022-11-02T01:44:00;5.90;99.90
1179;DHT22;578;48.408;10.004;2022-11-02T01:46:33;6.00;99.90
1179;DHT22;578;48.408;10.004;2022-11-02T01:49:04;5.90;99.90
1179;DHT22;578;48.408;10.004;2022-11-02T01:51:34;5.90;99.90
1179;DHT22;578;48.408;10.004;2022-11-02T01:54:06;5.80;99.90
1179;DHT22;578;48.408;10.004;2022-11-02T01:56:34;5.80;99.90
1179;DHT22;578;48.408;10.004;2022-11-02T01:59:03;5.70;99.90
1179;DHT22;578;48.408;10.004;2022-11-02T02:01:32;5.70;99.90
1179;DHT22;578;48.408;10.004;2022-11-02T02:03:59;5.70;99.90
1179;DHT22;578;48.408;10.004;2022-11-02T02:06:28;5.50;99.90
1179;DHT22;578;48.408;10.004;2022-11-02T02:08:57;5.40;99.90
1179;DHT22;578;48.408;10.004;2022-11-02T02:11:28;5.30;99.90
1179;DHT22;578;48.408;10.004;2022-11-02T02:13:56;5.30;99.90
1179;DHT22;578;48.408;10.004;2022-11-02T02:16:36;5.20;99.90
1179;DHT22;578;48.408;10.004;2022-11-02T02:19:13;5.20;99.90
1179;DHT22;578;48.408;10.004;2022-11-02T02:21:51;5.20;99.90
1179;DHT22;578;48.408;10.004;2022-11-02T02:24:35;5.20;99.90
1179;DHT22;578;48.408;10.004;2022-11-02T02:27:10;5.10;99.90
1179;DHT22;578;48.408;10.004;2022-11-02T02:33:04;5.00;99.90
1179;DHT22;578;48.408;10.004;2022-11-02T02:35:38;4.90;99.90
1179;DHT22;578;48.408;10.004;2022-11-02T02:38:09;4.90;99.90
1179;DHT22;578;48.408;10.004;2022-11-02T02:40:39;4.90;99.90
1179;DHT22;578;48.408;10.004;2022-11-02T02:43:11;4.90;99.90
1179;DHT22;578;48.408;10.004;2022-11-02T02:45:42;4.90;99.90
1179;DHT22;578;48.408;10.004;2022-11-02T02:48:15;5.00;99.90
1179;DHT22;578;48.408;10.004;2022-11-02T02:50:47;5.10;99.90
1179;DHT22;578;48.408;10.004;2022-11-02T02:53:15;5.10;99.90
1179;DHT22;578;48.408;10.004;2022-11-02T02:55:46;5.10;99.90
1179;DHT22;578;48.408;10.004;2022-11-02T02:58:19;5.00;99.90
1179;DHT22;578;48.408;10.004;2022-11-02T03:00:47;5.00;99.90
1179;DHT22;578;48.408;10.004;2022-11-02T03:03:17;5.00;99.90
1179;DHT22;578;48.408;10.004;2022-11-02T03:05:58;4.90;99.90
1179;DHT22;578;48.408;10.004;2022-11-02T03:08:25;4.80;99.90
1179;DHT22;578;48.408;10.004;2022-11-02T03:10:57;4.80;99.90
1179;DHT22;578;48.408;10.004;2022-11-02T03:13:36;4.80;99.90
1179;DHT22;578;48.408;10.004;2022-11-02T03:16:12;4.70;99.90
1179;DHT22;578;48.408;10.004;2022-11-02T03:18:47;4.70;99.90
1179;DHT22;578;48.408;10.004;2022-11-02T03:21:21;4.60;99.90
1179;DHT22;578;48.408;10.004;2022-11-02T03:23:53;4.60;99.90
1179;DHT22;578;48.408;10.004;2022-11-02T03:26:23;4.60;99.90
1179;DHT22;578;48.408;10.004;2022-11-02T03:28:59;4.70;99.90
1179;DHT22;578;48.408;10.004;2022-11-02T03:31:33;4.60;99.90
1179;DHT22;578;48.408;10.004;2022-11-02T03:34:11;4.60;99.90
1179;DHT22;578;48.408;10.004;2022-11-02T03:36:42;4.60;99.90
1179;DHT22;578;48.408;10.004;2022-11-02T03:39:12;4.70;99.90
1179;DHT22;578;48.408;10.004;2022-11-02T03:41:43;4.90;99.90
1179;DHT22;578;48.408;10.004;2022-11-02T03:44:13;4.90;99.90
1179;DHT22;578;48.408;10.004;2022-11-02T03:46:42;5.10;99.90
1179;DHT22;578;48.408;10.004;2022-11-02T03:49:13;5.30;99.90
1179;DHT22;578;48.408;10.004;2022-11-02T03:51:44;5.30;99.90
1179;DHT22;578;48.408;10.004;2022-11-02T03:54:18;5.40;99.90
1179;DHT22;578;48.408;10.004;2022-11-02T03:56:49;5.50;99.90
1179;DHT22;578;48.408;10.004;2022-11-02T03:59:16;5.50;99.90
1179;DHT22;578;48.408;10.004;2022-11-02T04:01:46;5.50;99.90
1179;DHT22;578;48.408;10.004;2022-11-02T04:04:15;5.60;99.90
1179;DHT22;578;48.408;10.004;2022-11-02T04:06:43;5.70;99.90
1179;DHT22;578;48.408;10.004;2022-11-02T04:09:12;5.70;99.90
1179;DHT22;578;48.408;10.004;2022-11-02T04:11:39;5.70;99.90
1179;DHT22;578;48.408;10.004;2022-11-02T04:14:23;5.70;99.90
1179;DHT22;578;48.408;10.004;2022-11-02T04:17:04;5.80;99.90
1179;DHT22;578;48.408;10.004;2022-11-02T04:19:50;5.80;99.90
1179;DHT22;578;48.408;10.004;2022-11-02T04:22:17;6.00;99.90
1179;DHT22;578;48.408;10.004;2022-11-02T04:25:03;5.90;99.90
1179;DHT22;578;48.408;10.004;2022-11-02T04:27:44;6.00;99.90
1179;DHT22;578;48.408;10.004;2022-11-02T04:30:12;6.10;99.90
1179;DHT22;578;48.408;10.004;2022-11-02T04:32:39;6.10;99.90
1179;DHT22;578;48.408;10.004;2022-11-02T04:35:25;6.10;99.90
1179;DHT22;578;48.408;10.004;2022-11-02T04:37:52;6.20;99.90
1179;DHT22;578;48.408;10.004;2022-11-02T04:40:36;6.00;99.90
1179;DHT22;578;48.408;10.004;2022-11-02T04:43:03;6.00;99.90
1179;DHT22;578;48.408;10.004;2022-11-02T04:45:30;6.00;99.90
1179;DHT22;578;48.408;10.004;2022-11-02T04:48:00;6.00;99.90
1179;DHT22;578;48.408;10.004;2022-11-02T04:50:29;6.10;99.90
1179;DHT22;578;48.408;10.004;2022-11-02T04:52:56;6.00;99.90
1179;DHT22;578;48.408;10.004;2022-11-02T04:55:23;6.00;99.90
1179;DHT22;578;48.408;10.004;2022-11-02T04:57:50;6.10;99.90
1179;DHT22;578;48.408;10.004;2022-11-02T05:00:17;6.00;99.90
1179;DHT22;578;48.408;10.004;2022-11-02T05:02:45;5.90;99.90
1179;DHT22;578;48.408;10.004;2022-11-02T05:05:12;5.90;99.90
1179;DHT22;578;48.408;10.004;2022-11-02T05:07:40;5.80;99.90
1179;DHT22;578;48.408;10.004;2022-11-02T05:10:08;5.80;99.90
1179;DHT22;578;48.408;10.004;2022-11-02T05:12:35;5.90;99.90
1179;DHT22;578;48.408;10.004;2022-11-02T05:15:02;5.90;99.90
1179;DHT22;578;48.408;10.004;2022-11-02T05:17:29;5.90;99.90
1179;DHT22;578;48.408;10.004;2022-11-02T05:19:56;5.90;99.90
1179;DHT22;578;48.408;10.004;2022-11-02T05:22:23;5.90;99.90
1179;DHT22;578;48.408;10.004;2022-11-02T05:24:51;5.90;99.90
1179;DHT22;578;48.408;10.004;2022-11-02T05:27:17;5.90;99.90
1179;DHT22;578;48.408;10.004;2022-11-02T05:29:44;5.90;99.90
1179;DHT22;578;48.408;10.004;2022-11-02T05:32:11;5.80;99.90
1179;DHT22;578;48.408;10.004;2022-11-02T05:34:37;5.80;99.90
1179;DHT22;578;48.408;10.004;2022-11-02T05:37:04;5.80;99.90
1179;DHT22;578;48.408;10.004;2022-11-02T05:39:31;5.70;99.90
1179;DHT22;578;48.408;10.004;2022-11-02T05:41:59;5.70;99.90
1179;DHT22;578;48.408;10.004;2022-11-02T05:44:26;5.70;99.90
1179;DHT22;578;48.408;10.004;2022-11-02T05:46:52;5.80;99.90
1179;DHT22;578;48.408;10.004;2022-11-02T05:49:19;5.80;99.90
1179;DHT22;578;48.408;10.004;2022-11-02T05:51:46;5.80;99.90
1179;DHT22;578;48.408;10.004;2022-11-02T05:54:13;5.80;99.90
1179;DHT22;578;48.408;10.004;2022-11-02T05:56:40;5.70;99.90
1179;DHT22;578;48.408;10.004;2022-11-02T05:59:08;5.70;99.90
1179;DHT22;578;48.408;10.004;2022-11-02T06:01:35;5.60;99.90
1179;DHT22;578;48.408;10.004;2022-11-02T06:04:02;5.70;99.90
1179;DHT22;578;48.408;10.004;2022-11-02T06:06:29;5.90;99.90
1179;DHT22;578;48.408;10.004;2022-11-02T06:08:55;5.90;99.90
1179;DHT22;578;48.408;10.004;2022-11-02T06:11:22;5.80;99.90
1179;DHT22;578;48.408;10.004;2022-11-02T06:13:50;5.80;99.90
1179;DHT22;578;48.408;10.004;2022-11-02T06:16:18;5.90;99.90
1179;DHT22;578;48.408;10.004;2022-11-02T06:18:44;5.80;99.90
1179;DHT22;578;48.408;10.004;2022-11-02T06:21:11;5.80;99.90
1179;DHT22;578;48.408;10.004;2022-11-02T06:23:39;5.80;99.90
1179;DHT22;578;48.408;10.004;2022-11-02T06:26:08;5.90;99.90
1179;DHT22;578;48.408;10.004;2022-11-02T06:28:37;5.90;99.90
1179;DHT22;578;48.408;10.004;2022-11-02T06:31:04;5.90;99.90
1179;DHT22;578;48.408;10.004;2022-11-02T06:33:32;6.00;99.90
1179;DHT22;578;48.408;10.004;2022-11-02T06:35:59;6.00;99.90
1179;DHT22;578;48.408;10.004;2022-11-02T06:38:25;6.00;99.90
1179;DHT22;578;48.408;10.004;2022-11-02T06:40:53;6.10;99.90
1179;DHT22;578;48.408;10.004;2022-11-02T06:43:20;6.20;99.90
1179;DHT22;578;48.408;10.004;2022-11-02T06:45:47;6.30;99.90
1179;DHT22;578;48.408;10.004;2022-11-02T06:48:14;6.30;99.90
1179;DHT22;578;48.408;10.004;2022-11-02T06:50:42;6.30;99.90
1179;DHT22;578;48.408;10.004;2022-11-02T06:53:09;6.40;99.90
1179;DHT22;578;48.408;10.004;2022-11-02T06:55:36;6.30;99.90
1179;DHT22;578;48.408;10.004;2022-11-02T06:58:03;6.40;99.90
1179;DHT22;578;48.408;10.004;2022-11-02T07:00:29;6.40;99.90
1179;DHT22;578;48.408;10.004;2022-11-02T07:02:59;6.40;99.90
1179;DHT22;578;48.408;10.004;2022-11-02T07:05:26;6.50;99.90
1179;DHT22;578;48.408;10.004;2022-11-02T07:07:55;6.60;99.90
1179;DHT22;578;48.408;10.004;2022-11-02T07:10:22;6.80;99.90
1179;DHT22;578;48.408;10.004;2022-11-02T07:12:51;7.00;99.90
1179;DHT22;578;48.408;10.004;2022-11-02T07:15:18;7.00;99.90
1179;DHT22;578;48.408;10.004;2022-11-02T07:17:45;7.10;99.90
1179;DHT22;578;48.408;10.004;2022-11-02T07:20:12;7.30;99.90
1179;DHT22;578;48.408;10.004;2022-11-02T07:22:39;7.40;99.90
1179;DHT22;578;48.408;10.004;2022-11-02T07:25:07;7.60;99.90
1179;DHT22;578;48.408;10.004;2022-11-02T07:27:37;7.90;99.90
1179;DHT22;578;48.408;10.004;2022-11-02T07:30:05;8.50;99.90
1179;DHT22;578;48.408;10.004;2022-11-02T07:32:38;9.30;99.90
1179;DHT22;578;48.408;10.004;2022-11-02T07:35:06;9.90;99.90
1179;DHT22;578;48.408;10.004;2022-11-02T07:37:33;10.90;99.90
1179;DHT22;578;48.408;10.004;2022-11-02T07:40:00;10.90;99.90
1179;DHT22;578;48.408;10.004;2022-11-02T07:42:28;11.20;99.90
1179;DHT22;578;48.408;10.004;2022-11-02T07:44:55;11.70;99.90
1179;DHT22;578;48.408;10.004;2022-11-02T07:47:21;12.40;99.90
1179;DHT22;578;48.408;10.004;2022-11-02T07:49:48;12.20;99.90
1179;DHT22;578;48.408;10.004;2022-11-02T07:52:15;11.90;99.90
1179;DHT22;578;48.408;10.004;2022-11-02T07:54:42;11.90;99.90
1179;DHT22;578;48.408;10.004;2022-11-02T07:57:08;12.30;99.90
1179;DHT22;578;48.408;10.004;2022-11-02T07:59:36;11.90;99.90
1179;DHT22;578;48.408;10.004;2022-11-02T08:02:03;11.50;99.90
1179;DHT22;578;48.408;10.004;2022-11-02T08:04:30;10.90;99.90
1179;DHT22;578;48.408;10.004;2022-11-02T08:06:57;11.30;99.90
1179;DHT22;578;48.408;10.004;2022-11-02T08:09:24;11.10;99.90
1179;DHT22;578;48.408;10.004;2022-11-02T08:11:51;10.80;99.90
1179;DHT22;578;48.408;10.004;2022-11-02T08:14:18;11.80;99.90
1179;DHT22;578;48.408;10.004;2022-11-02T08:16:46;13.40;99.90
1179;DHT22;578;48.408;10.004;2022-11-02T08:19:13;12.80;99.90
1179;DHT22;578;48.408;10.004;2022-11-02T08:21:39;12.50;99.90
1179;DHT22;578;48.408;10.004;2022-11-02T08:24:07;13.00;99.90
1179;DHT22;578;48.408;10.004;2022-11-02T08:26:33;13.20;99.90
1179;DHT22;578;48.408;10.004;2022-11-02T08:29:00;13.70;99.90
1179;DHT22;578;48.408;10.004;2022-11-02T08:31:27;14.40;99.90
1179;DHT22;578;48.408;10.004;2022-11-02T08:33:56;14.50;99.90
1179;DHT22;578;48.408;10.004;2022-11-02T08:36:23;14.70;99.90
1179;DHT22;578;48.408;10.004;2022-11-02T08:38:49;14.60;99.90
1179;DHT22;578;48.408;10.004;2022-11-02T08:41:16;13.60;99.90
1179;DHT22;578;48.408;10.004;2022-11-02T08:43:43;13.20;99.90
1179;DHT22;578;48.408;10.004;2022-11-02T08:46:10;12.80;99.90
1179;DHT22;578;48.408;10.004;2022-11-02T08:48:36;12.60;99.90
1179;DHT22;578;48.408;10.004;2022-11-02T08:51:05;12.30;99.90
1179;DHT22;578;48.408;10.004;2022-11-02T08:53:33;11.90;99.90
1179;DHT22;578;48.408;10.004;2022-11-02T08:56:00;11.80;99.90
1179;DHT22;578;48.408;10.004;2022-11-02T08:58:27;11.80;99.90
1179;DHT22;578;48.408;10.004;2022-11-02T09:00:54;11.80;99.90
1179;DHT22;578;48.408;10.004;2022-11-02T09:03:21;12.00;99.90
1179;DHT22;578;48.408;10.004;2022-11-02T09:05:49;12.20;99.90
1179;DHT22;578;48.408;10.004;2022-11-02T09:08:18;12.40;99.90
1179;DHT22;578;48.408;10.004;2022-11-02T09:10:49;12.40;99.90
1179;DHT22;578;48.408;10.004;2022-11-02T09:13:16;12.70;99.90
1179;DHT22;578;48.408;10.004;2022-11-02T09:15:48;12.50;99.90
1179;DHT22;578;48.408;10.004;2022-11-02T09:18:15;12.70;99.90
1179;DHT22;578;48.408;10.004;2022-11-02T09:20:42;12.80;99.90
1179;DHT22;578;48.408;10.004;2022-11-02T09:23:10;12.70;99.90
1179;DHT22;578;48.408;10.004;2022-11-02T09:25:38;12.90;99.90
1179;DHT22;578;48.408;10.004;2022-11-02T09:28:05;13.00;99.90
1179;DHT22;578;48.408;10.004;2022-11-02T09:30:31;12.90;99.90
1179;DHT22;578;48.408;10.004;2022-11-02T09:32:59;12.90;99.90
1179;DHT22;578;48.408;10.004;2022-11-02T09:35:28;12.80;99.90
1179;DHT22;578;48.408;10.004;2022-11-02T09:37:55;12.80;99.90
1179;DHT22;578;48.408;10.004;2022-11-02T09:40:24;13.00;99.90
1179;DHT22;578;48.408;10.004;2022-11-02T09:43:00;13.00;99.90
1179;DHT22;578;48.408;10.004;2022-11-02T09:45:29;13.10;99.90
1179;DHT22;578;48.408;10.004;2022-11-02T09:48:02;13.10;99.90
1179;DHT22;578;48.408;10.004;2022-11-02T09:50:37;13.00;99.90
1179;DHT22;578;48.408;10.004;2022-11-02T09:53:06;13.00;99.90
1179;DHT22;578;48.408;10.004;2022-11-02T09:55:40;12.90;99.90
1179;DHT22;578;48.408;10.004;2022-11-02T09:58:12;13.10;99.90
1179;DHT22;578;48.408;10.004;2022-11-02T10:00:40;13.30;99.90
1179;DHT22;578;48.408;10.004;2022-11-02T10:03:19;13.40;99.90
1179;DHT22;578;48.408;10.004;2022-11-02T10:05:53;13.70;99.90
1179;DHT22;578;48.408;10.004;2022-11-02T10:08:29;13.70;99.90
1179;DHT22;578;48.408;10.004;2022-11-02T10:11:18;13.80;99.90
1179;DHT22;578;48.408;10.004;2022-11-02T10:13:52;13.80;99.90
1179;DHT22;578;48.408;10.004;2022-11-02T10:16:23;13.80;99.90
1179;DHT22;578;48.408;10.004;2022-11-02T10:18:53;13.80;99.90
1179;DHT22;578;48.408;10.004;2022-11-02T10:21:22;14.00;99.90
1179;DHT22;578;48.408;10.004;2022-11-02T10:23:51;14.00;99.90
1179;DHT22;578;48.408;10.004;2022-11-02T10:26:21;14.10;99.90
1179;DHT22;578;48.408;10.004;2022-11-02T10:28:57;14.40;99.90
1179;DHT22;578;48.408;10.004;2022-11-02T10:31:27;14.60;99.90
1179;DHT22;578;48.408;10.004;2022-11-02T10:33:56;14.80;99.90
1179;DHT22;578;48.408;10.004;2022-11-02T10:36:36;14.80;99.90
1179;DHT22;578;48.408;10.004;2022-11-02T10:39:12;14.60;99.90
1179;DHT22;578;48.408;10.004;2022-11-02T10:42:10;14.70;99.90
1179;DHT22;578;48.408;10.004;2022-11-02T10:44:58;14.70;99.90
1179;DHT22;578;48.408;10.004;2022-11-02T10:47:33;14.70;99.90
1179;DHT22;578;48.408;10.004;2022-11-02T10:50:18;14.50;99.90
1179;DHT22;578;48.408;10.004;2022-11-02T10:52:52;14.50;99.90
1179;DHT22;578;48.408;10.004;2022-11-02T10:55:23;14.60;99.90
1179;DHT22;578;48.408;10.004;2022-11-02T10:57:53;14.70;99.90
1179;DHT22;578;48.408;10.004;2022-11-02T11:00:24;14.70;99.90
1179;DHT22;578;48.408;10.004;2022-11-02T11:03:08;14.70;99.90
1179;DHT22;578;48.408;10.004;2022-11-02T11:05:41;14.70;99.90
1179;DHT22;578;48.408;10.004;2022-11-02T11:08:28;14.70;99.90
1179;DHT22;578;48.408;10.004;2022-11-02T11:11:09;14.80;99.90
1179;DHT22;578;48.408;10.004;2022-11-02T11:13:36;14.80;99.90
1179;DHT22;578;48.408;10.004;2022-11-02T11:16:05;14.90;99.90
1179;DHT22;578;48.408;10.004;2022-11-02T11:18:32;15.00;99.90
1179;DHT22;578;48.408;10.004;2022-11-02T11:20:59;14.90;99.90
1179;DHT22;578;48.408;10.004;2022-11-02T11:23:26;14.80;99.90
1179;DHT22;578;48.408;10.004;2022-11-02T11:25:55;14.70;99.90
1179;DHT22;578;48.408;10.004;2022-11-02T11:28:25;14.70;99.90
1179;DHT22;578;48.408;10.004;2022-11-02T11:31:11;14.70;99.90
1179;DHT22;578;48.408;10.004;2022-11-02T11:33:46;14.80;99.90
1179;DHT22;578;48.408;10.004;2022-11-02T11:36:23;14.70;99.90
1179;DHT22;578;48.408;10.004;2022-11-02T11:38:52;14.60;99.90
1179;DHT22;578;48.408;10.004;2022-11-02T11:41:20;14.70;99.90
1179;DHT22;578;48.408;10.004;2022-11-02T11:43:47;14.70;99.90
1179;DHT22;578;48.408;10.004;2022-11-02T11:46:17;14.80;99.90
1179;DHT22;578;48.408;10.004;2022-11-02T11:48:48;14.80;99.90
1179;DHT22;578;48.408;10.004;2022-11-02T11:51:29;14.80;99.90
1179;DHT22;578;48.408;10.004;2022-11-02T11:54:17;14.90;99.90
1179;DHT22;578;48.408;10.004;2022-11-02T11:56:44;14.50;99.90
1179;DHT22;578;48.408;10.004;2022-11-02T11:59:28;14.60;99.90
1179;DHT22;578;48.408;10.004;2022-11-02T12:01:59;14.60;99.90
1179;DHT22;578;48.408;10.004;2022-11-02T12:04:31;14.60;99.90
1179;DHT22;578;48.408;10.004;2022-11-02T12:10:08;14.60;99.90
1179;DHT22;578;48.408;10.004;2022-11-02T12:13:02;14.70;99.90
1179;DHT22;578;48.408;10.004;2022-11-02T12:15:48;14.70;99.90
1179;DHT22;578;48.408;10.004;2022-11-02T12:18:33;14.70;99.90
1179;DHT22;578;48.408;10.004;2022-11-02T12:21:18;14.70;99.90
1179;DHT22;578;48.408;10.004;2022-11-02T12:24:00;14.60;99.90
1179;DHT22;578;48.408;10.004;2022-11-02T12:26:39;14.50;99.90
1179;DHT22;578;48.408;10.004;2022-11-02T12:29:26;14.60;99.90
1179;DHT22;578;48.408;10.004;2022-11-02T12:32:07;14.60;99.90
1179;DHT22;578;48.408;10.004;2022-11-02T12:34:59;14.50;99.90
1179;DHT22;578;48.408;10.004;2022-11-02T12:37:38;14.50;99.90
1179;DHT22;578;48.408;10.004;2022-11-02T12:40:20;14.40;99.90
1179;DHT22;578;48.408;10.004;2022-11-02T12:42:55;14.50;99.90
1179;DHT22;578;48.408;10.004;2022-11-02T12:45:27;14.50;99.90
1179;DHT22;578;48.408;10.004;2022-11-02T12:47:57;14.50;99.90
1179;DHT22;578;48.408;10.004;2022-11-02T12:50:34;14.60;99.90
1179;DHT22;578;48.408;10.004;2022-11-02T12:53:20;14.50;99.90
1179;DHT22;578;48.408;10.004;2022-11-02T12:55:51;14.50;99.90
1179;DHT22;578;48.408;10.004;2022-11-02T12:58:20;14.50;99.90
1179;DHT22;578;48.408;10.004;2022-11-02T13:00:53;14.50;99.90
1179;DHT22;578;48.408;10.004;2022-11-02T13:03:29;14.60;99.90
1179;DHT22;578;48.408;10.004;2022-11-02T13:06:03;14.60;99.90
1179;DHT22;578;48.408;10.004;2022-11-02T13:08:37;14.50;99.90
1179;DHT22;578;48.408;10.004;2022-11-02T13:11:07;14.40;99.90
1179;DHT22;578;48.408;10.004;2022-11-02T13:13:39;14.20;99.90
1179;DHT22;578;48.408;10.004;2022-11-02T13:16:08;14.00;99.90
1179;DHT22;578;48.408;10.004;2022-11-02T13:18:40;14.20;99.90
1179;DHT22;578;48.408;10.004;2022-11-02T13:21:11;14.40;99.90
1179;DHT22;578;48.408;10.004;2022-11-02T13:23:42;14.30;99.90
1179;DHT22;578;48.408;10.004;2022-11-02T13:26:13;14.30;99.90
1179;DHT22;578;48.408;10.004;2022-11-02T13:28:43;14.30;99.90
1179;DHT22;578;48.408;10.004;2022-11-02T13:31:15;14.30;99.90
1179;DHT22;578;48.408;10.004;2022-11-02T13:33:45;14.30;99.90
1179;DHT22;578;48.408;10.004;2022-11-02T13:36:14;14.40;99.90
1179;DHT22;578;48.408;10.004;2022-11-02T13:38:44;14.30;99.90
1179;DHT22;578;48.408;10.004;2022-11-02T13:41:31;14.10;99.90
1179;DHT22;578;48.408;10.004;2022-11-02T13:44:27;14.10;99.90
1179;DHT22;578;48.408;10.004;2022-11-02T13:49:53;14.30;99.90
1179;DHT22;578;48.408;10.004;2022-11-02T13:52:26;14.30;99.90
1179;DHT22;578;48.408;10.004;2022-11-02T13:54:58;14.20;99.90
1179;DHT22;578;48.408;10.004;2022-11-02T13:57:39;14.30;99.90
1179;DHT22;578;48.408;10.004;2022-11-02T14:00:27;14.40;99.90
1179;DHT22;578;48.408;10.004;2022-11-02T14:02:57;14.60;99.90
1179;DHT22;578;48.408;10.004;2022-11-02T14:05:28;14.60;99.90
1179;DHT22;578;48.408;10.004;2022-11-02T14:08:00;14.50;99.90
1179;DHT22;578;48.408;10.004;2022-11-02T14:10:31;14.30;99.90
1179;DHT22;578;48.408;10.004;2022-11-02T14:12:59;14.30;99.90
1179;DHT22;578;48.408;10.004;2022-11-02T14:15:53;14.30;99.90
1179;DHT22;578;48.408;10.004;2022-11-02T14:18:29;14.20;99.90
1179;DHT22;578;48.408;10.004;2022-11-02T14:20:56;14.20;99.90
1179;DHT22;578;48.408;10.004;2022-11-02T14:23:37;14.20;99.90
1179;DHT22;578;48.408;10.004;2022-11-02T14:26:06;14.20;99.90
1179;DHT22;578;48.408;10.004;2022-11-02T14:28:50;14.10;99.90
1179;DHT22;578;48.408;10.004;2022-11-02T14:31:40;14.10;99.90
1179;DHT22;578;48.408;10.004;2022-11-02T14:37:14;14.00;99.90
1179;DHT22;578;48.408;10.004;2022-11-02T14:39:49;13.90;99.90
1179;DHT22;578;48.408;10.004;2022-11-02T14:42:47;13.70;99.90
1179;DHT22;578;48.408;10.004;2022-11-02T14:45:35;13.60;99.90
1179;DHT22;578;48.408;10.004;2022-11-02T14:48:05;13.60;99.90
1179;DHT22;578;48.408;10.004;2022-11-02T14:50:32;13.70;99.90
1179;DHT22;578;48.408;10.004;2022-11-02T14:53:02;13.80;99.90
1179;DHT22;578;48.408;10.004;2022-11-02T14:55:33;13.90;99.90
1179;DHT22;578;48.408;10.004;2022-11-02T14:58:01;13.70;99.90
1179;DHT22;578;48.408;10.004;2022-11-02T15:00:34;13.50;99.90
1179;DHT22;578;48.408;10.004;2022-11-02T15:03:03;13.30;99.90
1179;DHT22;578;48.408;10.004;2022-11-02T15:05:33;13.40;99.90
1179;DHT22;578;48.408;10.004;2022-11-02T15:08:03;13.30;99.90
1179;DHT22;578;48.408;10.004;2022-11-02T15:10:38;13.40;99.90
1179;DHT22;578;48.408;10.004;2022-11-02T15:13:33;13.30;99.90
1179;DHT22;578;48.408;10.004;2022-11-02T15:16:23;13.10;99.90
1179;DHT22;578;48.408;10.004;2022-11-02T15:18:50;12.90;99.90
1179;DHT22;578;48.408;10.004;2022-11-02T15:21:26;12.70;99.90
1179;DHT22;578;48.408;10.004;2022-11-02T15:24:01;12.60;99.90
1179;DHT22;578;48.408;10.004;2022-11-02T15:26:35;12.40;99.90
1179;DHT22;578;48.408;10.004;2022-11-02T15:29:06;12.30;99.90
1179;DHT22;578;48.408;10.004;2022-11-02T15:31:40;12.10;99.90
1179;DHT22;578;48.408;10.004;2022-11-02T15:34:11;11.90;99.90
1179;DHT22;578;48.408;10.004;2022-11-02T15:36:42;11.90;99.90
1179;DHT22;578;48.408;10.004;2022-11-02T15:39:10;12.10;99.90
1179;DHT22;578;48.408;10.004;2022-11-02T15:41:43;11.90;99.90
1179;DHT22;578;48.408;10.004;2022-11-02T15:47:33;11.60;99.90
1179;DHT22;578;48.408;10.004;2022-11-02T15:50:18;11.40;99.90
1179;DHT22;578;48.408;10.004;2022-11-02T15:53:04;11.40;99.90
1179;DHT22;578;48.408;10.004;2022-11-02T15:55:41;11.30;99.90
1179;DHT22;578;48.408;10.004;2022-11-02T15:58:24;11.30;99.90
1179;DHT22;578;48.408;10.004;2022-11-02T16:01:15;11.30;99.90
1179;DHT22;578;48.408;10.004;2022-11-02T16:03:44;11.40;99.90
1179;DHT22;578;48.408;10.004;2022-11-02T16:06:11;11.30;99.90
1179;DHT22;578;48.408;10.004;2022-11-02T16:08:38;11.20;99.90
1179;DHT22;578;48.408;10.004;2022-11-02T16:11:09;11.20;99.90
1179;DHT22;578;48.408;10.004;2022-11-02T16:13:39;11.30;99.90
1179;DHT22;578;48.408;10.004;2022-11-02T16:16:06;11.30;99.90
1179;DHT22;578;48.408;10.004;2022-11-02T16:18:38;11.20;99.90
1179;DHT22;578;48.408;10.004;2022-11-02T16:21:06;11.20;99.90
1179;DHT22;578;48.408;10.004;2022-11-02T16:23:38;11.20;99.90
1179;DHT22;578;48.408;10.004;2022-11-02T16:26:06;11.10;99.90
1179;DHT22;578;48.408;10.004;2022-11-02T16:28:36;11.00;99.90
1179;DHT22;578;48.408;10.004;2022-11-02T16:31:11;10.90;99.90
1179;DHT22;578;48.408;10.004;2022-11-02T16:33:41;10.80;99.90
1179;DHT22;578;48.408;10.004;2022-11-02T16:36:09;10.70;99.90
1179;DHT22;578;48.408;10.004;2022-11-02T16:38:37;10.70;99.90
1179;DHT22;578;48.408;10.004;2022-11-02T16:41:06;10.70;99.90
1179;DHT22;578;48.408;10.004;2022-11-02T16:43:34;10.70;99.90
1179;DHT22;578;48.408;10.004;2022-11-02T16:46:02;10.60;99.90
1179;DHT22;578;48.408;10.004;2022-11-02T16:48:32;10.40;99.90
1179;DHT22;578;48.408;10.004;2022-11-02T16:51:05;10.50;99.90